Archival Weather

Aeroparque Jorge Newbery

Buenos Aires, Argentina (SABE)

Report from: Sunday, March 19, 2023 8:00 AM -03
Current time: Tuesday, July 16, 2024 1:05 PM -03

Current weather – Weather history – Daily summaries
Weather forecast

Temperature26.0°C (78.8°F)
Dew point24.0°C (75.2°F)
Winds 8 kts (4.1 m/s, 9.2 mph) Vrb
Winds variableWinds variable from West-Northwest (300°) to North (10°)
Visibility6.2 mi. (10 km)
Clouds Few clouds 1,100 ft. (335 m)
Scattered clouds 20,000 ft. (6,096 m)
Altimeter29.85 in.Hg (1011 mB)
Relative humidity89 %
Density altitude1,746 ft. (532 m)
Remarks Corrected report
No significant changes expected in the next two hours
Flight conditions Visual Meteorological Conditions
Raw dataCOR SABE 191100Z 34008KT 300V010 9999 FEW011 SCT200 26/24 Q1011 NOSIG RMK PP000
An error has occurred. This application may no longer respond until reloaded. Reload 🗙